sensor_id;sensor_type;location;lat;lon;timestamp;noise_LAeq;noise_LA_min;noise_LA_max;noise_LA01;noise_LA95
66888;Laerm;67239;51.680;5.976;2024-02-21T00:02:26;53.80;34.92;70.56;;
66888;Laerm;67239;51.680;5.976;2024-02-21T00:04:53;38.37;34.58;45.38;;
66888;Laerm;67239;51.680;5.976;2024-02-21T00:07:21;40.73;35.25;56.29;;
66888;Laerm;67239;51.680;5.976;2024-02-21T00:09:48;40.59;35.86;59.91;;
66888;Laerm;67239;51.680;5.976;2024-02-21T00:12:16;39.58;35.00;57.02;;
66888;Laerm;67239;51.680;5.976;2024-02-21T00:14:43;38.29;34.70;47.55;;
66888;Laerm;67239;51.680;5.976;2024-02-21T00:17:10;37.51;34.82;45.00;;
66888;Laerm;67239;51.680;5.976;2024-02-21T00:19:37;38.32;34.80;49.24;;
66888;Laerm;67239;51.680;5.976;2024-02-21T00:22:04;38.70;34.96;46.37;;
66888;Laerm;67239;51.680;5.976;2024-02-21T00:24:32;38.23;35.23;51.84;;
66888;Laerm;67239;51.680;5.976;2024-02-21T00:26:59;37.62;34.48;48.27;;
66888;Laerm;67239;51.680;5.976;2024-02-21T00:29:26;37.79;34.61;46.02;;
66888;Laerm;67239;51.680;5.976;2024-02-21T00:31:54;37.62;34.41;43.76;;
66888;Laerm;67239;51.680;5.976;2024-02-21T00:34:21;38.40;34.67;52.88;;
66888;Laerm;67239;51.680;5.976;2024-02-21T00:36:49;38.52;35.27;47.12;;
66888;Laerm;67239;51.680;5.976;2024-02-21T00:39:17;38.18;35.19;45.35;;
66888;Laerm;67239;51.680;5.976;2024-02-21T00:41:44;38.73;35.51;50.05;;
66888;Laerm;67239;51.680;5.976;2024-02-21T00:44:11;38.59;35.50;51.31;;
66888;Laerm;67239;51.680;5.976;2024-02-21T00:46:38;39.02;35.97;49.47;;
66888;Laerm;67239;51.680;5.976;2024-02-21T01:18:06;37.29;33.87;45.00;;
66888;Laerm;67239;51.680;5.976;2024-02-21T01:20:34;37.44;33.63;53.52;;
66888;Laerm;67239;51.680;5.976;2024-02-21T01:23:01;37.53;34.49;45.35;;
66888;Laerm;67239;51.680;5.976;2024-02-21T01:25:28;36.90;34.34;44.16;;
66888;Laerm;67239;51.680;5.976;2024-02-21T01:27:55;38.53;33.76;57.19;;
66888;Laerm;67239;51.680;5.976;2024-02-21T01:30:22;40.04;33.99;56.68;;
66888;Laerm;67239;51.680;5.976;2024-02-21T01:32:50;39.19;34.15;55.08;;
66888;Laerm;67239;51.680;5.976;2024-02-21T01:35:17;38.51;33.67;52.37;;
66888;Laerm;67239;51.680;5.976;2024-02-21T01:37:45;62.74;34.55;81.95;;
66888;Laerm;67239;51.680;5.976;2024-02-21T01:40:12;38.33;34.39;49.87;;
66888;Laerm;67239;51.680;5.976;2024-02-21T01:42:39;55.42;34.44;74.04;;
66888;Laerm;67239;51.680;5.976;2024-02-21T01:45:10;43.15;33.48;61.50;;
66888;Laerm;67239;51.680;5.976;2024-02-21T01:47:37;44.79;33.62;61.14;;
66888;Laerm;67239;51.680;5.976;2024-02-21T01:50:06;44.20;33.73;65.39;;
66888;Laerm;67239;51.680;5.976;2024-02-21T01:52:34;44.82;33.95;64.28;;
66888;Laerm;67239;51.680;5.976;2024-02-21T01:55:03;41.05;33.66;65.30;;
66888;Laerm;67239;51.680;5.976;2024-02-21T01:57:32;42.96;34.15;62.81;;
66888;Laerm;67239;51.680;5.976;2024-02-21T01:59:59;40.66;34.27;60.29;;
66888;Laerm;67239;51.680;5.976;2024-02-21T02:02:27;38.46;34.36;48.19;;
66888;Laerm;67239;51.680;5.976;2024-02-21T02:04:54;38.22;35.08;46.47;;
66888;Laerm;67239;51.680;5.976;2024-02-21T02:07:21;37.77;34.07;47.66;;
66888;Laerm;67239;51.680;5.976;2024-02-21T02:09:49;38.00;34.36;50.95;;
66888;Laerm;67239;51.680;5.976;2024-02-21T02:12:16;37.83;34.64;45.60;;
66888;Laerm;67239;51.680;5.976;2024-02-21T02:14:43;38.00;33.65;49.69;;
66888;Laerm;67239;51.680;5.976;2024-02-21T02:17:10;38.57;34.25;48.14;;
66888;Laerm;67239;51.680;5.976;2024-02-21T02:19:37;37.67;33.91;45.45;;
66888;Laerm;67239;51.680;5.976;2024-02-21T02:22:15;37.66;34.42;49.53;;
66888;Laerm;67239;51.680;5.976;2024-02-21T02:24:47;37.92;35.06;44.07;;
66888;Laerm;67239;51.680;5.976;2024-02-21T02:27:14;38.24;35.00;46.74;;
66888;Laerm;67239;51.680;5.976;2024-02-21T02:29:41;37.65;34.60;47.33;;
66888;Laerm;67239;51.680;5.976;2024-02-21T02:32:09;62.00;36.15;79.89;;
66888;Laerm;67239;51.680;5.976;2024-02-21T02:34:36;41.80;34.43;54.95;;
66888;Laerm;67239;51.680;5.976;2024-02-21T02:37:03;39.05;34.97;53.47;;
66888;Laerm;67239;51.680;5.976;2024-02-21T02:39:30;38.12;34.53;47.63;;
66888;Laerm;67239;51.680;5.976;2024-02-21T02:41:57;37.17;34.22;49.23;;
66888;Laerm;67239;51.680;5.976;2024-02-21T02:44:24;37.32;34.16;40.96;;
66888;Laerm;67239;51.680;5.976;2024-02-21T02:46:51;40.71;34.99;53.66;;
66888;Laerm;67239;51.680;5.976;2024-02-21T02:49:18;41.49;34.78;55.23;;
66888;Laerm;67239;51.680;5.976;2024-02-21T02:51:45;40.70;35.80;54.67;;
66888;Laerm;67239;51.680;5.976;2024-02-21T02:54:12;40.86;35.75;54.05;;
66888;Laerm;67239;51.680;5.976;2024-02-21T02:56:40;39.41;35.07;50.30;;
66888;Laerm;67239;51.680;5.976;2024-02-21T02:59:07;38.40;34.39;50.94;;
66888;Laerm;67239;51.680;5.976;2024-02-21T03:01:34;37.74;34.12;47.49;;
66888;Laerm;67239;51.680;5.976;2024-02-21T03:04:02;37.97;34.65;43.12;;
66888;Laerm;67239;51.680;5.976;2024-02-21T03:06:30;37.59;34.83;46.67;;
66888;Laerm;67239;51.680;5.976;2024-02-21T03:08:57;37.55;34.27;41.21;;
66888;Laerm;67239;51.680;5.976;2024-02-21T03:11:24;38.25;34.67;42.51;;
66888;Laerm;67239;51.680;5.976;2024-02-21T03:13:56;39.43;35.40;50.66;;
66888;Laerm;67239;51.680;5.976;2024-02-21T03:16:25;61.48;36.21;77.08;;
66888;Laerm;67239;51.680;5.976;2024-02-21T03:18:52;38.90;35.47;45.05;;
66888;Laerm;67239;51.680;5.976;2024-02-21T03:21:19;38.56;34.98;44.18;;
66888;Laerm;67239;51.680;5.976;2024-02-21T03:23:46;38.05;34.69;43.17;;
66888;Laerm;67239;51.680;5.976;2024-02-21T03:26:13;48.93;35.72;70.23;;
66888;Laerm;67239;51.680;5.976;2024-02-21T03:28:44;54.42;36.30;73.26;;
66888;Laerm;67239;51.680;5.976;2024-02-21T03:31:13;40.38;36.19;52.88;;
66888;Laerm;67239;51.680;5.976;2024-02-21T03:33:42;39.67;34.84;49.92;;
66888;Laerm;67239;51.680;5.976;2024-02-21T03:36:14;58.77;35.76;75.03;;
66888;Laerm;67239;51.680;5.976;2024-02-21T03:38:42;38.54;35.43;47.56;;
66888;Laerm;67239;51.680;5.976;2024-02-21T03:41:09;58.26;36.22;76.65;;
66888;Laerm;67239;51.680;5.976;2024-02-21T03:43:39;60.18;35.31;79.12;;
66888;Laerm;67239;51.680;5.976;2024-02-21T03:46:07;60.73;35.43;81.82;;
66888;Laerm;67239;51.680;5.976;2024-02-21T03:48:34;44.97;36.01;62.89;;
66888;Laerm;67239;51.680;5.976;2024-02-21T03:51:01;40.92;35.20;58.81;;
66888;Laerm;67239;51.680;5.976;2024-02-21T03:53:28;40.97;35.08;60.62;;
66888;Laerm;67239;51.680;5.976;2024-02-21T03:55:56;40.39;36.18;57.89;;
66888;Laerm;67239;51.680;5.976;2024-02-21T03:58:23;40.79;36.23;57.36;;
66888;Laerm;67239;51.680;5.976;2024-02-21T04:00:50;39.46;35.60;50.41;;
66888;Laerm;67239;51.680;5.976;2024-02-21T04:03:19;51.89;36.95;69.11;;
66888;Laerm;67239;51.680;5.976;2024-02-21T04:05:46;55.80;37.03;70.44;;
66888;Laerm;67239;51.680;5.976;2024-02-21T04:08:14;54.65;36.96;70.55;;
66888;Laerm;67239;51.680;5.976;2024-02-21T04:10:41;40.95;35.98;56.65;;
66888;Laerm;67239;51.680;5.976;2024-02-21T04:13:09;40.74;37.15;49.73;;
66888;Laerm;67239;51.680;5.976;2024-02-21T04:15:36;59.40;37.81;78.68;;
66888;Laerm;67239;51.680;5.976;2024-02-21T04:18:04;63.09;36.72;79.16;;
66888;Laerm;67239;51.680;5.976;2024-02-21T04:20:31;65.19;38.26;81.50;;
66888;Laerm;67239;51.680;5.976;2024-02-21T04:22:59;61.43;37.86;80.97;;
66888;Laerm;67239;51.680;5.976;2024-02-21T04:25:26;61.03;37.16;75.45;;
66888;Laerm;67239;51.680;5.976;2024-02-21T04:27:53;63.04;38.76;81.13;;
66888;Laerm;67239;51.680;5.976;2024-02-21T04:30:20;55.37;38.23;72.93;;
66888;Laerm;67239;51.680;5.976;2024-02-21T04:32:47;64.08;40.22;79.48;;
66888;Laerm;67239;51.680;5.976;2024-02-21T04:35:15;63.53;38.98;81.07;;
66888;Laerm;67239;51.680;5.976;2024-02-21T04:37:42;64.80;42.24;78.86;;
66888;Laerm;67239;51.680;5.976;2024-02-21T04:40:10;46.48;39.11;66.06;;
66888;Laerm;67239;51.680;5.976;2024-02-21T04:42:37;65.35;38.65;81.74;;
66888;Laerm;67239;51.680;5.976;2024-02-21T04:45:04;66.70;40.92;78.81;;
66888;Laerm;67239;51.680;5.976;2024-02-21T04:47:31;65.08;40.00;84.01;;
66888;Laerm;67239;51.680;5.976;2024-02-21T04:49:59;65.06;41.77;79.37;;
66888;Laerm;67239;51.680;5.976;2024-02-21T04:52:26;64.49;39.83;79.37;;
66888;Laerm;67239;51.680;5.976;2024-02-21T04:54:53;60.25;38.64;79.02;;
66888;Laerm;67239;51.680;5.976;2024-02-21T04:57:20;63.72;39.25;83.13;;
66888;Laerm;67239;51.680;5.976;2024-02-21T04:59:47;65.45;38.95;79.82;;
66888;Laerm;67239;51.680;5.976;2024-02-21T05:02:15;66.79;39.85;78.62;;
66888;Laerm;67239;51.680;5.976;2024-02-21T05:04:43;67.02;43.43;82.09;;
66888;Laerm;67239;51.680;5.976;2024-02-21T05:07:11;70.18;45.34;82.97;;
66888;Laerm;67239;51.680;5.976;2024-02-21T05:09:39;67.91;43.49;83.15;;
66888;Laerm;67239;51.680;5.976;2024-02-21T05:12:06;65.15;42.42;80.55;;
66888;Laerm;67239;51.680;5.976;2024-02-21T05:14:34;68.05;42.90;81.71;;
66888;Laerm;67239;51.680;5.976;2024-02-21T05:17:01;67.35;42.54;85.50;;
66888;Laerm;67239;51.680;5.976;2024-02-21T05:19:28;59.87;40.93;75.89;;
66888;Laerm;67239;51.680;5.976;2024-02-21T05:21:56;65.79;41.53;78.18;;
66888;Laerm;67239;51.680;5.976;2024-02-21T05:24:23;67.46;42.96;80.86;;
66888;Laerm;67239;51.680;5.976;2024-02-21T05:26:51;66.89;45.10;81.16;;
66888;Laerm;67239;51.680;5.976;2024-02-21T05:29:18;69.83;44.41;86.03;;
66888;Laerm;67239;51.680;5.976;2024-02-21T05:34:19;63.37;42.51;78.15;;
66888;Laerm;67239;51.680;5.976;2024-02-21T05:36:47;66.08;42.77;81.45;;
66888;Laerm;67239;51.680;5.976;2024-02-21T05:39:17;71.44;46.92;84.72;;
66888;Laerm;67239;51.680;5.976;2024-02-21T05:41:45;66.87;46.58;78.34;;
66888;Laerm;67239;51.680;5.976;2024-02-21T05:44:12;68.35;45.83;82.94;;
66888;Laerm;67239;51.680;5.976;2024-02-21T05:46:44;68.68;47.30;83.59;;
66888;Laerm;67239;51.680;5.976;2024-02-21T05:49:30;68.23;45.22;78.96;;
66888;Laerm;67239;51.680;5.976;2024-02-21T05:52:00;69.66;45.41;81.39;;
66888;Laerm;67239;51.680;5.976;2024-02-21T05:54:27;70.00;50.38;82.65;;
66888;Laerm;67239;51.680;5.976;2024-02-21T05:56:54;68.60;46.92;81.09;;
66888;Laerm;67239;51.680;5.976;2024-02-21T05:59:21;71.97;51.70;84.95;;
66888;Laerm;67239;51.680;5.976;2024-02-21T06:01:58;71.15;47.97;82.02;;
66888;Laerm;67239;51.680;5.976;2024-02-21T06:04:25;69.28;48.49;82.51;;
66888;Laerm;67239;51.680;5.976;2024-02-21T06:06:53;67.79;47.70;82.32;;
66888;Laerm;67239;51.680;5.976;2024-02-21T06:09:21;69.73;45.23;82.49;;
66888;Laerm;67239;51.680;5.976;2024-02-21T06:11:48;67.74;45.47;82.35;;
66888;Laerm;67239;51.680;5.976;2024-02-21T06:14:16;68.84;47.63;82.29;;
66888;Laerm;67239;51.680;5.976;2024-02-21T06:16:44;67.59;47.08;81.78;;
66888;Laerm;67239;51.680;5.976;2024-02-21T06:19:11;66.85;45.94;80.17;;
66888;Laerm;67239;51.680;5.976;2024-02-21T06:21:38;69.57;48.55;83.41;;
66888;Laerm;67239;51.680;5.976;2024-02-21T06:24:06;70.44;51.93;83.65;;
66888;Laerm;67239;51.680;5.976;2024-02-21T06:26:33;69.14;51.81;83.27;;
66888;Laerm;67239;51.680;5.976;2024-02-21T06:29:00;70.42;48.13;82.32;;
66888;Laerm;67239;51.680;5.976;2024-02-21T06:31:29;67.02;47.34;81.39;;
66888;Laerm;67239;51.680;5.976;2024-02-21T06:33:56;70.00;50.83;81.53;;
66888;Laerm;67239;51.680;5.976;2024-02-21T06:36:23;69.15;55.31;81.58;;
66888;Laerm;67239;51.680;5.976;2024-02-21T06:38:50;69.97;47.13;82.51;;
66888;Laerm;67239;51.680;5.976;2024-02-21T06:41:18;69.02;47.44;84.21;;
66888;Laerm;67239;51.680;5.976;2024-02-21T06:43:47;68.68;47.53;82.54;;
66888;Laerm;67239;51.680;5.976;2024-02-21T06:46:29;68.91;47.82;82.70;;
66888;Laerm;67239;51.680;5.976;2024-02-21T06:48:58;69.86;49.17;81.10;;
66888;Laerm;67239;51.680;5.976;2024-02-21T06:51:27;69.99;50.40;82.09;;
66888;Laerm;67239;51.680;5.976;2024-02-21T06:53:55;72.35;52.02;84.26;;
66888;Laerm;67239;51.680;5.976;2024-02-21T06:56:24;68.75;48.57;77.65;;
66888;Laerm;67239;51.680;5.976;2024-02-21T06:58:56;67.41;46.99;79.36;;
66888;Laerm;67239;51.680;5.976;2024-02-21T07:01:24;71.00;50.72;83.48;;
66888;Laerm;67239;51.680;5.976;2024-02-21T07:03:51;70.13;53.40;83.56;;
66888;Laerm;67239;51.680;5.976;2024-02-21T07:06:18;69.46;50.44;80.65;;
66888;Laerm;67239;51.680;5.976;2024-02-21T07:08:46;72.22;50.72;84.46;;
66888;Laerm;67239;51.680;5.976;2024-02-21T07:11:13;68.43;48.79;81.99;;
66888;Laerm;67239;51.680;5.976;2024-02-21T07:13:41;73.39;53.70;88.28;;
66888;Laerm;67239;51.680;5.976;2024-02-21T07:16:08;70.31;48.55;81.88;;
66888;Laerm;67239;51.680;5.976;2024-02-21T07:18:35;69.99;49.51;80.90;;
66888;Laerm;67239;51.680;5.976;2024-02-21T07:21:02;68.66;48.37;81.35;;
66888;Laerm;67239;51.680;5.976;2024-02-21T07:23:29;70.39;48.87;82.82;;
66888;Laerm;67239;51.680;5.976;2024-02-21T07:25:57;70.80;54.56;85.64;;
66888;Laerm;67239;51.680;5.976;2024-02-21T07:28:24;68.21;48.04;80.00;;
66888;Laerm;67239;51.680;5.976;2024-02-21T07:30:51;70.85;47.96;83.53;;
66888;Laerm;67239;51.680;5.976;2024-02-21T07:33:18;69.64;48.26;83.26;;
66888;Laerm;67239;51.680;5.976;2024-02-21T07:35:45;68.29;49.39;81.02;;
66888;Laerm;67239;51.680;5.976;2024-02-21T07:38:12;66.93;50.19;81.38;;
66888;Laerm;67239;51.680;5.976;2024-02-21T07:40:41;70.45;50.29;87.60;;
66888;Laerm;67239;51.680;5.976;2024-02-21T07:43:08;67.47;48.49;82.65;;
66888;Laerm;67239;51.680;5.976;2024-02-21T07:45:35;69.88;48.48;82.83;;
66888;Laerm;67239;51.680;5.976;2024-02-21T07:48:03;66.79;47.81;80.60;;
66888;Laerm;67239;51.680;5.976;2024-02-21T07:50:30;67.85;48.18;80.93;;
66888;Laerm;67239;51.680;5.976;2024-02-21T07:52:57;68.18;48.91;79.73;;
66888;Laerm;67239;51.680;5.976;2024-02-21T07:55:24;68.56;50.15;81.39;;
66888;Laerm;67239;51.680;5.976;2024-02-21T07:57:52;68.18;50.19;80.56;;
66888;Laerm;67239;51.680;5.976;2024-02-21T08:00:19;66.98;48.75;79.14;;
66888;Laerm;67239;51.680;5.976;2024-02-21T08:02:51;66.62;48.01;79.34;;
66888;Laerm;67239;51.680;5.976;2024-02-21T08:05:26;68.67;50.09;82.28;;
66888;Laerm;67239;51.680;5.976;2024-02-21T08:07:53;66.50;49.77;78.74;;
66888;Laerm;67239;51.680;5.976;2024-02-21T08:10:24;69.53;52.19;81.07;;
66888;Laerm;67239;51.680;5.976;2024-02-21T08:12:51;70.50;48.46;82.57;;
66888;Laerm;67239;51.680;5.976;2024-02-21T08:15:18;71.20;49.80;82.00;;
66888;Laerm;67239;51.680;5.976;2024-02-21T08:17:45;69.23;49.13;83.14;;
66888;Laerm;67239;51.680;5.976;2024-02-21T08:20:12;70.41;47.47;84.42;;
66888;Laerm;67239;51.680;5.976;2024-02-21T08:22:40;70.02;49.80;83.75;;
66888;Laerm;67239;51.680;5.976;2024-02-21T08:25:07;70.56;49.24;84.33;;
66888;Laerm;67239;51.680;5.976;2024-02-21T08:27:34;66.32;47.08;81.22;;
66888;Laerm;67239;51.680;5.976;2024-02-21T08:30:01;70.01;50.03;83.38;;
66888;Laerm;67239;51.680;5.976;2024-02-21T08:32:29;66.90;47.07;83.07;;
66888;Laerm;67239;51.680;5.976;2024-02-21T08:34:56;71.08;50.85;83.54;;
66888;Laerm;67239;51.680;5.976;2024-02-21T08:37:23;70.38;47.80;82.26;;
66888;Laerm;67239;51.680;5.976;2024-02-21T08:39:50;69.81;46.57;84.69;;
66888;Laerm;67239;51.680;5.976;2024-02-21T08:42:17;70.33;47.23;81.38;;
66888;Laerm;67239;51.680;5.976;2024-02-21T08:44:44;69.30;47.28;80.33;;
66888;Laerm;67239;51.680;5.976;2024-02-21T08:47:11;70.17;45.99;83.87;;
66888;Laerm;67239;51.680;5.976;2024-02-21T08:49:39;70.57;49.03;84.08;;
66888;Laerm;67239;51.680;5.976;2024-02-21T08:52:06;68.50;46.84;80.31;;
66888;Laerm;67239;51.680;5.976;2024-02-21T08:54:33;66.28;47.06;78.04;;
66888;Laerm;67239;51.680;5.976;2024-02-21T08:57:01;69.37;52.10;83.35;;
66888;Laerm;67239;51.680;5.976;2024-02-21T08:59:28;68.78;47.65;82.10;;
66888;Laerm;67239;51.680;5.976;2024-02-21T09:01:55;68.91;50.15;81.65;;
66888;Laerm;67239;51.680;5.976;2024-02-21T09:04:22;65.49;45.94;78.71;;
66888;Laerm;67239;51.680;5.976;2024-02-21T09:06:50;67.97;46.90;79.12;;
66888;Laerm;67239;51.680;5.976;2024-02-21T09:09:19;69.50;48.85;82.39;;
66888;Laerm;67239;51.680;5.976;2024-02-21T09:11:46;69.12;49.80;81.78;;
66888;Laerm;67239;51.680;5.976;2024-02-21T09:14:14;68.20;49.11;82.13;;
66888;Laerm;67239;51.680;5.976;2024-02-21T09:16:41;68.06;51.04;79.53;;
66888;Laerm;67239;51.680;5.976;2024-02-21T09:19:08;69.20;48.91;81.79;;
66888;Laerm;67239;51.680;5.976;2024-02-21T09:21:37;70.15;50.40;83.40;;
66888;Laerm;67239;51.680;5.976;2024-02-21T09:24:06;70.99;50.33;85.43;;
66888;Laerm;67239;51.680;5.976;2024-02-21T09:26:33;71.12;50.55;83.10;;
66888;Laerm;67239;51.680;5.976;2024-02-21T09:29:00;69.85;53.08;81.76;;
66888;Laerm;67239;51.680;5.976;2024-02-21T09:31:27;70.70;52.28;83.64;;
66888;Laerm;67239;51.680;5.976;2024-02-21T09:33:55;67.91;49.44;82.35;;
66888;Laerm;67239;51.680;5.976;2024-02-21T09:36:22;69.70;50.73;82.90;;
66888;Laerm;67239;51.680;5.976;2024-02-21T09:38:49;68.18;49.96;80.73;;
66888;Laerm;67239;51.680;5.976;2024-02-21T09:41:26;69.84;48.46;82.79;;
66888;Laerm;67239;51.680;5.976;2024-02-21T09:43:57;69.29;46.16;83.86;;
66888;Laerm;67239;51.680;5.976;2024-02-21T09:46:56;66.60;46.37;82.07;;
66888;Laerm;67239;51.680;5.976;2024-02-21T09:49:31;70.43;47.47;83.79;;
66888;Laerm;67239;51.680;5.976;2024-02-21T09:52:06;68.88;50.55;80.15;;
66888;Laerm;67239;51.680;5.976;2024-02-21T09:54:34;70.57;49.13;81.54;;
66888;Laerm;67239;51.680;5.976;2024-02-21T09:57:04;69.93;50.24;81.85;;
66888;Laerm;67239;51.680;5.976;2024-02-21T09:59:33;70.61;50.32;82.25;;
66888;Laerm;67239;51.680;5.976;2024-02-21T10:02:00;70.71;48.34;84.57;;
66888;Laerm;67239;51.680;5.976;2024-02-21T10:04:29;69.29;50.06;85.72;;
66888;Laerm;67239;51.680;5.976;2024-02-21T10:06:57;69.96;51.87;80.86;;
66888;Laerm;67239;51.680;5.976;2024-02-21T10:09:26;69.25;49.36;79.63;;
66888;Laerm;67239;51.680;5.976;2024-02-21T10:12:11;67.54;49.99;83.93;;
66888;Laerm;67239;51.680;5.976;2024-02-21T10:14:40;68.62;47.96;81.69;;
66888;Laerm;67239;51.680;5.976;2024-02-21T10:17:15;69.93;49.02;83.35;;
66888;Laerm;67239;51.680;5.976;2024-02-21T10:19:45;68.23;49.59;79.58;;
66888;Laerm;67239;51.680;5.976;2024-02-21T10:22:15;69.33;48.92;82.21;;
66888;Laerm;67239;51.680;5.976;2024-02-21T10:24:42;70.04;51.74;81.38;;
66888;Laerm;67239;51.680;5.976;2024-02-21T10:27:10;67.92;45.67;82.19;;
66888;Laerm;67239;51.680;5.976;2024-02-21T10:29:40;66.11;46.91;82.59;;
66888;Laerm;67239;51.680;5.976;2024-02-21T10:32:12;65.86;46.94;78.33;;
66888;Laerm;67239;51.680;5.976;2024-02-21T10:34:42;68.09;47.99;81.76;;
66888;Laerm;67239;51.680;5.976;2024-02-21T10:37:11;69.08;49.52;80.45;;
66888;Laerm;67239;51.680;5.976;2024-02-21T10:39:41;71.10;51.29;84.02;;
66888;Laerm;67239;51.680;5.976;2024-02-21T10:42:11;67.89;46.23;83.19;;
66888;Laerm;67239;51.680;5.976;2024-02-21T10:44:41;68.36;50.41;78.32;;
66888;Laerm;67239;51.680;5.976;2024-02-21T10:47:11;69.02;49.28;80.23;;
66888;Laerm;67239;51.680;5.976;2024-02-21T10:49:41;65.14;46.33;77.51;;
66888;Laerm;67239;51.680;5.976;2024-02-21T10:52:44;66.89;47.46;83.48;;
66888;Laerm;67239;51.680;5.976;2024-02-21T10:55:30;65.56;46.86;81.12;;
66888;Laerm;67239;51.680;5.976;2024-02-21T10:58:01;66.94;49.24;79.95;;
66888;Laerm;67239;51.680;5.976;2024-02-21T11:00:30;68.68;50.12;82.67;;
66888;Laerm;67239;51.680;5.976;2024-02-21T11:02:59;69.55;47.80;81.61;;
66888;Laerm;67239;51.680;5.976;2024-02-21T11:05:28;67.26;47.37;80.09;;
66888;Laerm;67239;51.680;5.976;2024-02-21T11:07:56;66.62;45.13;81.46;;
66888;Laerm;67239;51.680;5.976;2024-02-21T11:10:25;68.27;45.61;83.73;;
66888;Laerm;67239;51.680;5.976;2024-02-21T11:13:13;67.68;45.01;82.14;;
66888;Laerm;67239;51.680;5.976;2024-02-21T11:15:41;68.65;45.43;83.56;;
66888;Laerm;67239;51.680;5.976;2024-02-21T11:18:08;69.64;50.01;80.89;;
66888;Laerm;67239;51.680;5.976;2024-02-21T11:20:37;70.76;46.55;85.18;;
66888;Laerm;67239;51.680;5.976;2024-02-21T11:23:05;65.72;43.51;81.64;;
66888;Laerm;67239;51.680;5.976;2024-02-21T11:25:32;68.41;48.00;83.36;;
66888;Laerm;67239;51.680;5.976;2024-02-21T11:28:03;69.87;48.11;84.45;;
66888;Laerm;67239;51.680;5.976;2024-02-21T11:30:31;68.62;48.04;83.40;;
66888;Laerm;67239;51.680;5.976;2024-02-21T11:33:03;70.56;46.17;81.69;;
66888;Laerm;67239;51.680;5.976;2024-02-21T11:35:34;70.15;50.81;80.57;;
66888;Laerm;67239;51.680;5.976;2024-02-21T11:38:10;67.56;48.88;82.18;;
66888;Laerm;67239;51.680;5.976;2024-02-21T11:40:39;69.17;43.75;81.62;;
66888;Laerm;67239;51.680;5.976;2024-02-21T11:43:07;67.32;45.49;81.04;;
66888;Laerm;67239;51.680;5.976;2024-02-21T11:45:34;68.46;46.94;80.79;;
66888;Laerm;67239;51.680;5.976;2024-02-21T11:48:02;68.35;45.41;79.16;;
66888;Laerm;67239;51.680;5.976;2024-02-21T11:50:31;68.65;47.05;82.65;;
66888;Laerm;67239;51.680;5.976;2024-02-21T11:52:58;67.98;46.53;83.19;;
66888;Laerm;67239;51.680;5.976;2024-02-21T11:55:25;67.65;45.77;82.19;;
66888;Laerm;67239;51.680;5.976;2024-02-21T11:57:52;69.44;50.45;79.53;;
66888;Laerm;67239;51.680;5.976;2024-02-21T12:00:20;71.78;50.08;85.35;;
66888;Laerm;67239;51.680;5.976;2024-02-21T12:02:49;71.10;45.73;83.66;;
66888;Laerm;67239;51.680;5.976;2024-02-21T12:05:19;68.97;44.26;82.08;;
66888;Laerm;67239;51.680;5.976;2024-02-21T12:07:47;70.22;46.69;83.29;;
66888;Laerm;67239;51.680;5.976;2024-02-21T12:10:14;69.63;45.93;84.07;;
66888;Laerm;67239;51.680;5.976;2024-02-21T12:12:41;70.10;47.40;83.07;;
66888;Laerm;67239;51.680;5.976;2024-02-21T12:15:08;70.71;49.56;82.73;;
66888;Laerm;67239;51.680;5.976;2024-02-21T12:17:37;70.82;49.27;82.24;;
66888;Laerm;67239;51.680;5.976;2024-02-21T12:20:06;68.27;45.96;82.35;;
66888;Laerm;67239;51.680;5.976;2024-02-21T12:22:38;68.08;45.41;81.07;;
66888;Laerm;67239;51.680;5.976;2024-02-21T12:25:16;68.94;49.11;79.96;;
66888;Laerm;67239;51.680;5.976;2024-02-21T12:27:48;70.46;50.33;82.83;;
66888;Laerm;67239;51.680;5.976;2024-02-21T12:30:16;68.13;44.66;83.71;;
66888;Laerm;67239;51.680;5.976;2024-02-21T12:32:43;68.92;46.11;80.65;;
66888;Laerm;67239;51.680;5.976;2024-02-21T12:35:11;71.06;50.73;81.96;;
66888;Laerm;67239;51.680;5.976;2024-02-21T12:37:38;69.79;45.30;83.82;;
66888;Laerm;67239;51.680;5.976;2024-02-21T12:40:08;67.48;45.06;82.31;;
66888;Laerm;67239;51.680;5.976;2024-02-21T12:42:36;69.76;50.21;81.99;;
66888;Laerm;67239;51.680;5.976;2024-02-21T12:45:03;69.75;46.71;81.25;;
66888;Laerm;67239;51.680;5.976;2024-02-21T12:47:31;70.28;50.27;81.71;;
66888;Laerm;67239;51.680;5.976;2024-02-21T12:49:58;68.18;47.90;81.33;;
66888;Laerm;67239;51.680;5.976;2024-02-21T12:52:26;70.84;50.84;80.58;;
66888;Laerm;67239;51.680;5.976;2024-02-21T12:54:53;70.01;47.18;83.98;;
66888;Laerm;67239;51.680;5.976;2024-02-21T12:57:23;70.00;44.90;83.83;;
66888;Laerm;67239;51.680;5.976;2024-02-21T12:59:54;70.18;47.24;82.13;;
66888;Laerm;67239;51.680;5.976;2024-02-21T13:02:21;71.23;51.09;81.93;;
66888;Laerm;67239;51.680;5.976;2024-02-21T13:04:49;70.76;52.66;82.85;;
66888;Laerm;67239;51.680;5.976;2024-02-21T13:07:16;70.74;49.24;82.84;;
66888;Laerm;67239;51.680;5.976;2024-02-21T13:09:43;71.60;49.63;82.53;;
66888;Laerm;67239;51.680;5.976;2024-02-21T13:12:10;69.95;48.41;79.70;;
66888;Laerm;67239;51.680;5.976;2024-02-21T13:14:39;70.81;47.93;82.23;;
66888;Laerm;67239;51.680;5.976;2024-02-21T13:17:06;70.77;47.73;88.35;;
66888;Laerm;67239;51.680;5.976;2024-02-21T13:19:34;69.90;48.64;80.81;;
66888;Laerm;67239;51.680;5.976;2024-02-21T13:22:01;70.27;50.12;84.44;;
66888;Laerm;67239;51.680;5.976;2024-02-21T13:24:30;69.74;49.37;81.21;;
66888;Laerm;67239;51.680;5.976;2024-02-21T13:26:58;72.03;53.79;82.36;;
66888;Laerm;67239;51.680;5.976;2024-02-21T13:29:25;70.67;50.74;82.85;;
66888;Laerm;67239;51.680;5.976;2024-02-21T13:31:53;67.82;46.85;80.53;;
66888;Laerm;67239;51.680;5.976;2024-02-21T13:34:20;69.50;46.42;82.74;;
66888;Laerm;67239;51.680;5.976;2024-02-21T13:36:47;69.99;47.33;82.20;;
66888;Laerm;67239;51.680;5.976;2024-02-21T13:39:14;69.34;45.76;84.17;;
66888;Laerm;67239;51.680;5.976;2024-02-21T13:41:43;69.36;48.13;80.84;;
66888;Laerm;67239;51.680;5.976;2024-02-21T13:44:11;70.56;49.24;82.89;;
66888;Laerm;67239;51.680;5.976;2024-02-21T13:46:39;68.27;45.66;81.83;;
66888;Laerm;67239;51.680;5.976;2024-02-21T13:49:07;68.14;44.16;80.20;;
66888;Laerm;67239;51.680;5.976;2024-02-21T13:51:35;70.87;49.16;82.30;;
66888;Laerm;67239;51.680;5.976;2024-02-21T13:54:05;67.24;46.78;79.76;;
66888;Laerm;67239;51.680;5.976;2024-02-21T13:56:36;68.30;45.26;81.97;;
66888;Laerm;67239;51.680;5.976;2024-02-21T13:59:03;68.32;47.97;82.74;;
66888;Laerm;67239;51.680;5.976;2024-02-21T14:01:32;68.97;47.38;82.08;;
66888;Laerm;67239;51.680;5.976;2024-02-21T14:03:59;66.71;45.18;80.82;;
66888;Laerm;67239;51.680;5.976;2024-02-21T14:06:27;70.70;50.30;81.95;;
66888;Laerm;67239;51.680;5.976;2024-02-21T14:08:54;70.27;48.89;83.25;;
66888;Laerm;67239;51.680;5.976;2024-02-21T14:11:22;70.41;49.49;82.77;;
66888;Laerm;67239;51.680;5.976;2024-02-21T14:13:50;70.07;48.30;82.62;;
66888;Laerm;67239;51.680;5.976;2024-02-21T14:16:17;67.38;47.75;81.69;;
66888;Laerm;67239;51.680;5.976;2024-02-21T14:18:44;71.35;47.57;83.99;;
66888;Laerm;67239;51.680;5.976;2024-02-21T14:21:11;72.08;48.66;85.09;;
66888;Laerm;67239;51.680;5.976;2024-02-21T14:23:39;70.63;46.53;82.09;;